createdAt,value
2022-08-30T00:01:45.584Z,0.00
2022-08-30T00:06:45.514Z,0.00
2022-08-30T00:11:45.453Z,0.00
2022-08-30T00:16:45.390Z,0.00
2022-08-30T00:21:45.341Z,0.00
2022-08-30T00:26:45.252Z,0.00
2022-08-30T00:31:45.192Z,0.00
2022-08-30T00:36:45.126Z,0.00
2022-08-30T00:41:45.065Z,0.00
2022-08-30T00:46:45.052Z,0.00
2022-08-30T00:51:44.946Z,0.00
2022-08-30T00:56:44.870Z,0.00
2022-08-30T01:01:44.880Z,0.00
2022-08-30T01:06:44.730Z,0.00
2022-08-30T01:11:44.671Z,0.00
2022-08-30T01:16:44.592Z,0.00
2022-08-30T01:21:44.534Z,0.00
2022-08-30T01:26:44.466Z,0.00
2022-08-30T01:31:44.401Z,0.00
2022-08-30T01:36:44.819Z,0.00
2022-08-30T01:41:44.260Z,0.00
2022-08-30T01:46:44.211Z,0.00
2022-08-30T01:51:44.140Z,0.00
2022-08-30T01:56:44.081Z,0.00
2022-08-30T02:01:44.092Z,0.00
2022-08-30T02:06:43.943Z,0.00
2022-08-30T02:11:43.863Z,0.00
2022-08-30T02:16:43.849Z,0.00
2022-08-30T02:21:43.720Z,0.00
2022-08-30T02:26:43.661Z,0.00
2022-08-30T02:31:43.587Z,0.00
2022-08-30T02:36:43.534Z,0.00
2022-08-30T02:41:43.465Z,0.00
2022-08-30T02:46:43.393Z,0.00
2022-08-30T02:51:43.327Z,0.00
2022-08-30T02:56:43.261Z,0.00
2022-08-30T03:01:43.300Z,0.00
2022-08-30T03:06:43.120Z,0.00
2022-08-30T03:11:43.049Z,0.00
2022-08-30T03:16:43.048Z,0.00
2022-08-30T03:21:42.916Z,0.00
2022-08-30T03:26:46.244Z,0.00
2022-08-30T03:31:52.808Z,0.00
2022-08-30T03:36:42.745Z,0.00
2022-08-30T03:41:42.657Z,0.00
2022-08-30T03:46:42.597Z,0.00
2022-08-30T03:51:42.524Z,0.00
2022-08-30T03:56:42.479Z,0.00
2022-08-30T04:01:42.413Z,0.00
2022-08-30T04:06:42.355Z,5.62
2022-08-30T04:11:42.286Z,5.62
2022-08-30T04:16:42.339Z,11.25
2022-08-30T04:21:43.026Z,22.50
2022-08-30T04:26:42.333Z,28.12
2022-08-30T04:31:42.087Z,39.37
2022-08-30T04:36:41.961Z,61.87
2022-08-30T04:41:41.889Z,90.00
2022-08-30T04:46:44.356Z,146.25
2022-08-30T04:51:41.774Z,185.62
2022-08-30T04:56:41.709Z,213.75
2022-08-30T05:01:45.214Z,309.37
2022-08-30T05:06:41.577Z,438.75
2022-08-30T05:11:41.505Z,714.37
2022-08-30T05:16:41.727Z,680.62
2022-08-30T05:21:41.479Z,866.25
2022-08-30T05:26:41.394Z,1012.50
2022-08-30T05:31:41.358Z,990.00
2022-08-30T05:36:41.200Z,1794.37
2022-08-30T05:41:41.112Z,1845.00
2022-08-30T05:46:41.054Z,1507.50
2022-08-30T05:51:42.975Z,1231.87
2022-08-30T05:56:40.926Z,1372.50
2022-08-30T06:01:40.911Z,2345.62
2022-08-30T06:06:40.784Z,1456.87
2022-08-30T06:11:40.716Z,1485.00
2022-08-30T06:16:40.656Z,1996.87
2022-08-30T06:21:40.602Z,2160.00
2022-08-30T06:26:40.566Z,3380.62
2022-08-30T06:31:40.513Z,2998.12
2022-08-30T06:36:40.393Z,2570.62
2022-08-30T06:41:40.325Z,2694.37
2022-08-30T06:46:40.346Z,2525.62
2022-08-30T06:51:40.198Z,2497.50
2022-08-30T06:56:42.463Z,3465.00
2022-08-30T07:01:40.113Z,3099.37
2022-08-30T07:06:40.011Z,4325.62
2022-08-30T07:11:40.013Z,4275.00
2022-08-30T07:16:39.870Z,3791.25
2022-08-30T07:21:39.796Z,2694.37
2022-08-30T07:26:39.747Z,4263.75
2022-08-30T07:31:39.664Z,4680.00
2022-08-30T07:36:39.619Z,4190.62
2022-08-30T07:41:39.617Z,4455.00
2022-08-30T07:46:39.626Z,4410.00
2022-08-30T07:51:39.404Z,3751.87
2022-08-30T07:56:39.359Z,3133.12
2022-08-30T08:01:39.339Z,4387.50
2022-08-30T08:06:39.235Z,4201.87
2022-08-30T08:11:39.148Z,4432.50
2022-08-30T08:16:39.094Z,2587.50
2022-08-30T08:21:39.030Z,3841.87
2022-08-30T08:26:38.975Z,4871.25
2022-08-30T08:31:38.959Z,3915.00
2022-08-30T08:36:38.829Z,4213.12
2022-08-30T08:41:38.766Z,4426.87
2022-08-30T08:46:38.756Z,4713.75
2022-08-30T08:51:38.652Z,3026.25
2022-08-30T08:56:38.580Z,4111.87
2022-08-30T09:01:38.575Z,4381.87
2022-08-30T09:06:38.452Z,4623.75
2022-08-30T09:11:38.378Z,3841.87
2022-08-30T09:16:38.316Z,4561.87
2022-08-30T09:21:38.246Z,4860.00
2022-08-30T09:26:38.177Z,3645.00
2022-08-30T09:31:38.115Z,866.25
2022-08-30T09:36:38.050Z,1108.12
2022-08-30T09:41:37.980Z,4820.62
2022-08-30T09:46:37.979Z,849.37
2022-08-30T09:51:37.841Z,1018.12
2022-08-30T09:56:37.802Z,922.50
2022-08-30T10:01:37.809Z,894.37
2022-08-30T10:06:37.663Z,911.25
2022-08-30T10:11:37.582Z,911.25
2022-08-30T10:16:37.523Z,810.00
2022-08-30T10:21:37.467Z,798.75
2022-08-30T10:26:37.394Z,1096.87
2022-08-30T10:31:37.328Z,973.12
2022-08-30T10:36:37.276Z,990.00
2022-08-30T10:41:37.193Z,652.50
2022-08-30T10:46:37.137Z,691.87
2022-08-30T10:51:37.064Z,669.37
2022-08-30T10:56:37.021Z,675.00
2022-08-30T11:01:36.977Z,579.37
2022-08-30T11:06:36.882Z,770.62
2022-08-30T11:11:36.815Z,770.62
2022-08-30T11:16:36.764Z,810.00
2022-08-30T11:21:36.697Z,748.12
2022-08-30T11:26:36.629Z,686.25
2022-08-30T11:31:36.552Z,708.75
2022-08-30T11:41:41.578Z,742.50
2022-08-30T11:46:36.370Z,736.87
2022-08-30T11:51:36.317Z,1659.37
2022-08-30T11:56:36.283Z,1231.87
2022-08-30T12:01:50.508Z,669.37
2022-08-30T12:06:37.213Z,618.75
2022-08-30T12:11:36.060Z,590.62
2022-08-30T12:16:36.049Z,590.62
2022-08-30T12:21:44.955Z,579.37
2022-08-30T12:26:35.861Z,590.62
2022-08-30T12:31:35.886Z,506.25
2022-08-30T12:36:35.725Z,438.75
2022-08-30T12:41:35.653Z,523.12
2022-08-30T12:46:35.593Z,607.50
2022-08-30T12:51:35.527Z,641.25
2022-08-30T12:56:49.875Z,686.25
2022-08-30T13:01:36.633Z,630.00
2022-08-30T13:06:35.331Z,630.00
2022-08-30T13:11:35.251Z,511.87
2022-08-30T13:16:35.223Z,478.12
2022-08-30T13:21:35.116Z,466.87
2022-08-30T13:26:35.055Z,444.37
2022-08-30T13:31:35.016Z,399.37
2022-08-30T13:36:35.364Z,348.75
2022-08-30T13:41:34.850Z,331.87
2022-08-30T13:46:34.856Z,337.50
2022-08-30T13:51:34.718Z,309.37
2022-08-30T13:56:34.668Z,303.75
2022-08-30T14:02:07.596Z,315.00
2022-08-30T14:06:35.682Z,343.12
2022-08-30T14:11:34.452Z,388.12
2022-08-30T14:16:34.565Z,399.37
2022-08-30T14:21:34.332Z,382.50
2022-08-30T14:26:34.275Z,331.87
2022-08-30T14:31:34.237Z,315.00
2022-08-30T14:36:34.137Z,343.12
2022-08-30T14:41:34.073Z,343.12
2022-08-30T14:46:34.091Z,376.87
2022-08-30T14:51:33.937Z,388.12
2022-08-30T14:56:33.881Z,438.75
2022-08-30T15:01:33.941Z,450.00
2022-08-30T15:06:33.755Z,455.62
2022-08-30T15:11:33.680Z,416.25
2022-08-30T15:16:33.711Z,365.62
2022-08-30T15:21:33.552Z,337.50
2022-08-30T15:26:33.509Z,343.12
2022-08-30T15:31:33.500Z,348.75
2022-08-30T15:36:33.374Z,365.62
2022-08-30T15:41:33.306Z,393.75
2022-08-30T15:46:33.303Z,405.00
2022-08-30T15:51:41.044Z,410.62
2022-08-30T15:56:33.139Z,399.37
2022-08-30T16:01:33.101Z,388.12
2022-08-30T16:06:33.012Z,337.50
2022-08-30T16:11:32.931Z,270.00
2022-08-30T16:16:32.981Z,225.00
2022-08-30T16:21:32.807Z,213.75
2022-08-30T16:26:32.749Z,202.50
2022-08-30T16:31:32.766Z,191.25
2022-08-30T16:36:32.621Z,180.00
2022-08-30T16:41:32.717Z,168.75
2022-08-30T16:46:33.416Z,163.12
2022-08-30T16:51:32.420Z,151.87
2022-08-30T16:56:32.365Z,146.25
2022-08-30T17:01:32.475Z,140.62
2022-08-30T17:06:32.257Z,129.37
2022-08-30T17:11:32.160Z,118.12
2022-08-30T17:16:32.150Z,106.87
2022-08-30T17:21:32.041Z,95.62
2022-08-30T17:26:31.970Z,84.37
2022-08-30T17:31:31.979Z,73.12
2022-08-30T17:36:31.841Z,61.87
2022-08-30T17:41:31.773Z,50.62
2022-08-30T17:46:31.758Z,39.37
2022-08-30T17:51:31.633Z,28.12
2022-08-30T17:56:35.517Z,16.87
2022-08-30T18:01:31.581Z,11.25
2022-08-30T18:06:31.452Z,5.62
2022-08-30T18:11:31.376Z,0.00
2022-08-30T18:16:31.427Z,0.00
2022-08-30T18:21:31.256Z,0.00
2022-08-30T18:26:31.189Z,0.00
2022-08-30T18:31:31.112Z,0.00
2022-08-30T18:36:31.067Z,0.00
2022-08-30T18:41:30.990Z,0.00
2022-08-30T18:46:30.930Z,0.00
2022-08-30T18:51:30.853Z,0.00
2022-08-30T18:56:33.170Z,0.00
2022-08-30T19:01:30.822Z,0.00
2022-08-30T19:06:30.675Z,0.00
2022-08-30T19:11:30.596Z,0.00
2022-08-30T19:16:30.537Z,0.00
2022-08-30T19:21:30.473Z,0.00
2022-08-30T19:26:30.420Z,0.00
2022-08-30T19:31:30.339Z,0.00
2022-08-30T19:36:30.280Z,0.00
2022-08-30T19:41:30.221Z,0.00
2022-08-30T19:46:30.155Z,0.00
2022-08-30T19:51:30.083Z,0.00
2022-08-30T19:56:30.015Z,0.00
2022-08-30T20:01:33.044Z,0.00
2022-08-30T20:06:29.882Z,0.00
2022-08-30T20:11:29.821Z,0.00
2022-08-30T20:16:37.289Z,0.00
2022-08-30T20:21:29.669Z,0.00
2022-08-30T20:26:33.775Z,0.00
2022-08-30T20:31:29.609Z,0.00
2022-08-30T20:36:29.472Z,0.00
2022-08-30T20:41:29.403Z,0.00
2022-08-30T20:46:33.892Z,0.00
2022-08-30T20:51:29.260Z,0.00
2022-08-30T20:56:29.201Z,0.00
2022-08-30T21:01:29.168Z,0.00
2022-08-30T21:06:29.065Z,0.00
2022-08-30T21:11:28.992Z,0.00
2022-08-30T21:16:28.983Z,0.00
2022-08-30T21:21:28.861Z,0.00
2022-08-30T21:26:28.810Z,0.00
2022-08-30T21:31:28.729Z,0.00
2022-08-30T21:36:28.673Z,0.00
2022-08-30T21:41:28.598Z,0.00
2022-08-30T21:46:28.567Z,0.00
2022-08-30T21:51:28.465Z,0.00
2022-08-30T21:56:28.409Z,0.00
2022-08-30T22:01:28.409Z,0.00
2022-08-30T22:06:30.839Z,0.00
2022-08-30T22:11:28.208Z,0.00
2022-08-30T22:16:28.191Z,0.00
2022-08-30T22:21:28.080Z,0.00
2022-08-30T22:26:28.035Z,0.00
2022-08-30T22:31:28.032Z,0.00
2022-08-30T22:36:32.395Z,0.00
2022-08-30T22:41:31.207Z,0.00
2022-08-30T22:46:33.808Z,0.00
2022-08-30T22:51:27.705Z,0.00
2022-08-30T22:56:27.654Z,0.00
2022-08-30T23:01:27.635Z,0.00
2022-08-30T23:06:27.509Z,0.00
2022-08-30T23:11:27.462Z,0.00
2022-08-30T23:16:27.455Z,0.00
2022-08-30T23:21:27.324Z,0.00
2022-08-30T23:26:27.250Z,0.00
2022-08-30T23:31:27.226Z,0.00
2022-08-30T23:36:27.130Z,0.00
2022-08-30T23:41:30.269Z,0.00
2022-08-30T23:46:26.996Z,0.00
2022-08-30T23:51:26.933Z,0.00
2022-08-30T23:56:26.856Z,0.00
